Time;durP1;ratioP1;P1;durP2;ratioP2;P2;SDS_P1;SDS_P2;PMS_P1;PMS_P2;Temp;Humidity;BMP_temperature;BMP_pressure;BME280_temperature;BME280_humidity;BME280_pressure;Samples;Min_cycle;Max_cycle;Signal;HPM_P1;HPM_P2
2021/06/08 00:01:26;;;;;;;21.50;19.20;;;25.40;59.50;;;;;;5025700;28;20967;-51
2021/06/08 00:03:52;;;;;;;26.60;23.87;;;25.50;59.50;;;;;;5019148;28;20281;-52
2021/06/08 00:06:17;;;;;;;26.33;22.97;;;25.40;59.50;;;;;;5030085;28;20684;-51
2021/06/08 00:08:43;;;;;;;28.50;24.93;;;25.40;59.80;;;;;;5016047;28;20562;-51
2021/06/08 00:11:09;;;;;;;21.13;19.03;;;25.40;60.10;;;;;;5027165;28;20182;-50
2021/06/08 00:13:34;;;;;;;24.10;21.70;;;25.30;60.30;;;;;;5023065;28;20705;-51
2021/06/08 00:16:00;;;;;;;22.07;19.90;;;25.20;60.40;;;;;;5021932;28;20185;-52
2021/06/08 00:18:26;;;;;;;18.90;17.03;;;25.20;60.50;;;;;;5022773;28;20367;-52
2021/06/08 00:20:52;;;;;;;18.67;16.77;;;25.20;60.50;;;;;;5017034;28;20205;-50
2021/06/08 00:23:17;;;;;;;20.50;18.30;;;25.10;60.50;;;;;;5026014;28;20225;-50
2021/06/08 00:25:43;;;;;;;19.40;17.53;;;25.20;60.40;;;;;;5032376;28;20201;-51
2021/06/08 00:28:09;;;;;;;17.90;16.30;;;25.20;60.50;;;;;;5015752;28;20657;-50
2021/06/08 00:30:36;;;;;;;24.70;22.13;;;25.20;60.30;;;;;;5021713;28;20205;-50
2021/06/08 00:33:01;;;;;;;21.57;17.10;;;25.20;60.20;;;;;;5021500;28;20451;-52
2021/06/08 00:35:28;;;;;;;22.77;20.50;;;25.20;60.40;;;;;;5018769;28;20928;-52
2021/06/08 00:37:54;;;;;;;18.93;17.03;;;25.20;61.10;;;;;;5016210;28;20222;-51
2021/06/08 00:40:20;;;;;;;16.47;14.87;;;25.20;60.10;;;;;;5021147;28;20437;-51
2021/06/08 00:42:46;;;;;;;17.30;15.80;;;25.20;60.00;;;;;;5028408;28;20479;-52
2021/06/08 00:45:12;;;;;;;18.93;16.93;;;25.20;60.20;;;;;;5018261;28;20185;-51
2021/06/08 00:47:38;;;;;;;17.93;16.20;;;25.20;60.20;;;;;;5021834;28;20437;-51
2021/06/08 00:50:04;;;;;;;20.10;18.10;;;25.20;60.20;;;;;;5018630;28;20451;-51
2021/06/08 00:52:30;;;;;;;18.33;16.40;;;25.20;60.00;;;;;;5019637;28;20190;-52
2021/06/08 00:54:55;;;;;;;20.57;18.63;;;25.20;59.80;;;;;;5026793;28;20444;-52
2021/06/08 00:57:21;;;;;;;25.00;22.00;;;25.30;59.90;;;;;;5030280;28;20189;-52
2021/06/08 00:59:47;;;;;;;21.03;19.10;;;25.30;59.90;;;;;;5021622;28;20220;-51
2021/06/08 01:02:14;;;;;;;23.40;21.20;;;25.20;60.20;;;;;;5024812;28;20257;-50
2021/06/08 01:04:40;;;;;;;17.93;16.33;;;25.10;60.10;;;;;;5019276;28;20189;-52
2021/06/08 01:07:06;;;;;;;21.13;19.10;;;25.10;60.30;;;;;;5020745;28;20800;-51
2021/06/08 01:09:31;;;;;;;20.77;18.77;;;25.20;60.30;;;;;;5022452;28;20204;-51
2021/06/08 01:11:57;;;;;;;22.93;20.60;;;25.00;60.70;;;;;;5013447;28;20183;-53
2021/06/08 01:14:22;;;;;;;23.93;21.53;;;25.00;60.80;;;;;;5015495;28;20201;-51
2021/06/08 01:16:48;;;;;;;23.23;21.03;;;25.00;60.90;;;;;;5019683;28;20594;-52
2021/06/08 01:19:13;;;;;;;23.90;21.40;;;25.00;61.00;;;;;;5021245;28;20269;-51
2021/06/08 01:21:39;;;;;;;18.10;16.17;;;25.00;61.20;;;;;;5014042;28;20225;-51
2021/06/08 01:24:05;;;;;;;17.33;15.37;;;24.90;61.40;;;;;;5023677;28;20669;-51
2021/06/08 01:26:32;;;;;;;23.10;20.90;;;24.90;61.30;;;;;;5019642;28;20197;-51
2021/06/08 01:28:59;;;;;;;19.87;18.07;;;24.90;61.40;;;;;;5016848;28;20445;-51
2021/06/08 01:31:27;;;;;;;17.60;15.90;;;24.90;61.20;;;;;;5013953;28;20469;-51
2021/06/08 01:33:53;;;;;;;27.20;24.57;;;24.90;61.00;;;;;;5015663;28;20515;-53
2021/06/08 01:36:21;;;;;;;17.30;15.60;;;24.90;61.10;;;;;;5016258;28;20441;-51
2021/06/08 01:38:51;;;;;;;17.23;15.60;;;24.90;61.30;;;;;;5019384;28;20189;-51
2021/06/08 01:41:25;;;;;;;22.93;20.80;;;24.90;61.10;;;;;;5023519;28;20444;-52
2021/06/08 01:43:50;;;;;;;17.70;15.90;;;24.90;61.10;;;;;;5016567;28;20534;-53
2021/06/08 01:46:18;;;;;;;25.80;23.20;;;24.90;60.90;;;;;;5018990;28;20851;-51
2021/06/08 01:48:45;;;;;;;21.73;18.60;;;24.90;60.80;;;;;;5020848;28;20215;-51
2021/06/08 01:51:31;;;;;;;20.03;18.00;;;25.00;60.90;;;;;;5022826;28;20467;-52
2021/06/08 01:54:18;;;;;;;20.00;18.10;;;24.90;60.80;;;;;;5015225;28;20479;-52
2021/06/08 01:56:50;;;;;;;20.47;16.80;;;25.00;60.80;;;;;;5018865;28;20480;-51
2021/06/08 01:59:20;;;;;;;23.37;20.40;;;24.90;60.80;;;;;;5025776;28;20534;-52
2021/06/08 02:02:00;;;;;;;23.00;20.80;;;25.00;60.90;;;;;;5021801;28;20494;-52
2021/06/08 02:04:32;;;;;;;23.30;21.10;;;24.90;60.90;;;;;;5025847;28;21041;-52
2021/06/08 02:07:13;;;;;;;22.13;19.97;;;24.90;61.10;;;;;;5019245;28;20445;-50
2021/06/08 02:09:46;;;;;;;25.80;21.93;;;24.90;61.20;;;;;;5016767;28;20771;-52
2021/06/08 02:12:17;;;;;;;23.67;21.47;;;24.80;61.20;;;;;;5017191;28;20807;-51
2021/06/08 02:14:48;;;;;;;24.77;22.27;;;24.80;61.60;;;;;;5024018;28;20435;-52
2021/06/08 02:17:17;;;;;;;24.40;22.13;;;24.70;62.00;;;;;;5027126;28;20479;-51
2021/06/08 02:19:46;;;;;;;18.67;16.87;;;24.70;62.00;;;;;;5019621;28;20456;-52
2021/06/08 02:22:13;;;;;;;21.43;19.43;;;24.60;62.10;;;;;;5014232;28;20581;-49
2021/06/08 02:24:43;;;;;;;18.90;17.10;;;24.60;62.90;;;;;;5014542;28;20822;-51
2021/06/08 02:27:11;;;;;;;19.10;17.40;;;24.60;62.10;;;;;;5017004;28;20933;-51
2021/06/08 02:29:41;;;;;;;19.27;16.97;;;24.60;61.80;;;;;;5013444;28;20480;-51
2021/06/08 02:32:08;;;;;;;21.93;19.87;;;24.70;61.90;;;;;;5026283;28;20448;-50
2021/06/08 02:34:35;;;;;;;26.83;23.93;;;24.70;61.70;;;;;;5012713;28;20440;-52
2021/06/08 02:37:02;;;;;;;20.23;18.40;;;24.70;61.80;;;;;;5022016;28;20436;-51
2021/06/08 02:39:28;;;;;;;19.07;17.37;;;24.60;61.90;;;;;;5011539;28;20449;-51
2021/06/08 02:41:55;;;;;;;25.17;22.67;;;24.60;62.00;;;;;;5023775;28;20491;-51
2021/06/08 02:44:22;;;;;;;19.93;18.07;;;24.60;61.90;;;;;;5018462;28;20639;-51
2021/06/08 02:46:49;;;;;;;21.97;19.80;;;24.60;61.80;;;;;;5019875;28;20444;-51
2021/06/08 02:49:17;;;;;;;18.10;16.33;;;24.60;61.80;;;;;;5014669;28;20553;-51
2021/06/08 02:51:45;;;;;;;24.20;21.80;;;24.60;61.70;;;;;;5015177;28;20451;-52
2021/06/08 02:54:13;;;;;;;22.37;19.97;;;24.70;61.70;;;;;;5017048;28;20476;-51
2021/06/08 02:56:39;;;;;;;21.90;19.70;;;24.70;61.70;;;;;;5018529;28;20525;-52
2021/06/08 02:59:06;;;;;;;25.50;21.60;;;24.60;61.80;;;;;;5015086;28;20531;-49
2021/06/08 03:01:33;;;;;;;24.53;22.00;;;24.60;61.80;;;;;;5014252;28;20789;-52
2021/06/08 03:04:00;;;;;;;17.30;15.60;;;24.60;62.00;;;;;;5011922;28;20946;-48
2021/06/08 03:06:35;;;;;;;21.93;19.93;;;24.60;61.80;;;;;;5017192;28;20472;-52
2021/06/08 03:09:06;;;;;;;17.90;16.20;;;24.60;61.70;;;;;;5022976;28;20527;-51
2021/06/08 03:11:39;;;;;;;18.17;16.40;;;24.60;61.60;;;;;;5018946;28;20820;-52
2021/06/08 03:14:08;;;;;;;26.30;23.50;;;24.60;61.30;;;;;;5015279;28;20551;-51
2021/06/08 03:16:41;;;;;;;20.57;18.47;;;24.60;61.50;;;;;;5029300;28;20439;-52
2021/06/08 03:19:09;;;;;;;18.30;16.60;;;24.70;61.40;;;;;;5013501;28;20444;-51
2021/06/08 03:21:38;;;;;;;27.03;23.57;;;24.70;61.20;;;;;;5021823;28;20451;-51
2021/06/08 03:24:07;;;;;;;19.40;17.50;;;24.60;61.30;;;;;;5024462;28;20436;-52
2021/06/08 03:26:35;;;;;;;26.03;23.43;;;24.60;61.70;;;;;;5033072;28;20443;-53
2021/06/08 03:29:05;;;;;;;29.70;26.60;;;24.60;61.50;;;;;;5018912;28;20444;-51
2021/06/08 03:31:33;;;;;;;28.23;25.43;;;24.60;61.50;;;;;;5022259;28;20516;-51
2021/06/08 03:33:59;;;;;;;30.93;27.73;;;24.50;61.80;;;;;;5030564;28;20448;-51
2021/06/08 03:36:28;;;;;;;30.13;27.13;;;24.50;62.40;;;;;;5039971;28;20451;-52
2021/06/08 03:38:55;;;;;;;32.70;26.70;;;24.30;62.50;;;;;;5026767;28;20436;-52
2021/06/08 03:41:22;;;;;;;31.20;27.93;;;24.20;62.90;;;;;;5027254;28;20475;-52
2021/06/08 03:43:49;;;;;;;31.77;28.23;;;24.10;63.30;;;;;;5024056;28;20975;-52
2021/06/08 03:46:16;;;;;;;28.80;25.90;;;24.00;63.90;;;;;;5025168;28;20472;-51
2021/06/08 03:48:42;;;;;;;30.77;27.80;;;23.90;64.30;;;;;;5026813;28;20535;-52
2021/06/08 03:51:09;;;;;;;28.23;25.30;;;23.90;64.60;;;;;;5018614;28;20574;-52
2021/06/08 03:53:38;;;;;;;29.50;26.30;;;23.80;64.70;;;;;;5020388;28;20275;-52
2021/06/08 03:56:05;;;;;;;29.43;26.30;;;23.70;64.80;;;;;;5021653;28;20456;-48
2021/06/08 03:58:33;;;;;;;30.60;27.13;;;23.70;65.00;;;;;;5021876;28;20485;-51
2021/06/08 04:00:59;;;;;;;30.20;26.60;;;23.60;65.20;;;;;;5026134;28;20499;-48
2021/06/08 04:03:26;;;;;;;30.70;27.30;;;23.50;65.40;;;;;;5019831;28;20520;-50
2021/06/08 04:05:55;;;;;;;29.17;26.27;;;23.50;65.90;;;;;;5016399;28;20458;-49
2021/06/08 04:08:22;;;;;;;30.50;27.30;;;23.50;66.10;;;;;;5015917;28;20447;-49
2021/06/08 04:10:48;;;;;;;31.13;28.03;;;23.40;66.10;;;;;;5023119;28;20468;-52
2021/06/08 04:13:16;;;;;;;31.43;26.77;;;23.40;66.10;;;;;;5026641;28;20471;-52
2021/06/08 04:15:43;;;;;;;32.83;29.53;;;23.40;66.30;;;;;;5021985;28;20440;-52
2021/06/08 04:18:10;;;;;;;31.33;28.07;;;23.40;66.30;;;;;;5017593;28;20480;-52
2021/06/08 04:20:36;;;;;;;30.57;27.23;;;23.30;66.40;;;;;;5024414;28;20433;-52
2021/06/08 04:23:02;;;;;;;31.67;26.90;;;23.30;66.30;;;;;;5018224;28;20506;-51
2021/06/08 04:25:29;;;;;;;31.33;26.10;;;23.30;66.50;;;;;;5021231;28;20445;-50
2021/06/08 04:27:55;;;;;;;33.83;28.30;;;23.20;66.90;;;;;;5020490;28;20448;-51
2021/06/08 04:30:22;;;;;;;31.70;28.50;;;23.20;67.10;;;;;;5025674;28;20440;-52
2021/06/08 04:32:48;;;;;;;30.23;27.13;;;23.20;67.20;;;;;;5024243;28;20458;-53
2021/06/08 04:35:17;;;;;;;31.37;28.10;;;23.10;67.20;;;;;;5019128;28;20933;-51
2021/06/08 04:37:43;;;;;;;29.67;26.77;;;23.20;67.50;;;;;;5030506;28;20444;-53
2021/06/08 04:40:11;;;;;;;30.17;27.13;;;23.20;67.50;;;;;;5025355;28;20450;-50
2021/06/08 04:42:43;;;;;;;29.70;26.80;;;23.20;67.50;;;;;;5025485;28;20528;-51
2021/06/08 04:45:10;;;;;;;29.30;26.10;;;23.20;67.30;;;;;;5021229;28;20436;-48
2021/06/08 04:47:36;;;;;;;31.27;27.97;;;23.20;67.20;;;;;;5026970;28;20790;-52
2021/06/08 04:50:02;;;;;;;29.93;26.73;;;23.20;67.20;;;;;;5022115;28;20455;-51
2021/06/08 04:52:27;;;;;;;29.73;26.40;;;23.20;67.20;;;;;;5042941;28;20537;-51
2021/06/08 04:54:53;;;;;;;28.43;25.53;;;23.20;67.10;;;;;;5035539;28;20523;-50
2021/06/08 04:57:19;;;;;;;31.80;28.40;;;23.30;67.20;;;;;;5017584;28;20240;-51
2021/06/08 05:00:07;;;;;;;28.93;25.83;;;23.30;67.60;;;;;;5012311;28;20202;-52
2021/06/08 05:02:49;;;;;;;30.53;27.50;;;23.30;67.20;;;;;;5026741;28;20583;-51
2021/06/08 05:05:21;;;;;;;30.60;27.30;;;23.30;67.40;;;;;;5015797;28;20531;-52
2021/06/08 05:08:05;;;;;;;30.80;27.50;;;23.30;67.50;;;;;;5027709;28;20471;-52
2021/06/08 05:10:33;;;;;;;31.00;27.67;;;23.30;67.50;;;;;;5018249;28;20449;-50
2021/06/08 05:13:00;;;;;;;31.93;27.80;;;23.30;67.70;;;;;;5016430;28;20439;-52
2021/06/08 05:15:26;;;;;;;19.20;13.43;;;23.20;68.00;;;;;;5018177;28;20860;-52
2021/06/08 05:17:54;;;;;;;31.07;26.07;;;23.10;67.80;;;;;;5013469;28;20607;-53
2021/06/08 05:20:21;;;;;;;21.07;18.83;;;23.30;67.30;;;;;;5020123;28;20447;-51
2021/06/08 05:22:49;;;;;;;27.97;25.00;;;23.40;66.70;;;;;;5017530;28;20513;-50
2021/06/08 05:25:15;;;;;;;23.90;21.40;;;23.60;66.00;;;;;;5022979;28;20433;-50
2021/06/08 05:27:41;;;;;;;24.53;22.13;;;23.80;65.60;;;;;;5034158;28;20439;-51
2021/06/08 05:30:09;;;;;;;28.43;25.47;;;23.90;65.10;;;;;;5020562;28;20198;-48
2021/06/08 05:32:37;;;;;;;29.37;26.27;;;24.00;64.90;;;;;;5021588;28;20507;-49
2021/06/08 05:35:05;;;;;;;28.93;25.93;;;24.00;64.70;;;;;;5014270;28;20481;-51
2021/06/08 05:37:39;;;;;;;27.57;24.77;;;24.00;64.70;;;;;;5014202;28;20871;-51
2021/06/08 05:40:05;;;;;;;30.20;27.20;;;24.00;64.80;;;;;;5025556;28;20793;-51
2021/06/08 05:42:31;;;;;;;30.00;26.80;;;23.90;64.80;;;;;;5022962;28;20510;-49
2021/06/08 05:44:56;;;;;;;26.57;23.87;;;23.90;65.00;;;;;;5019682;28;20456;-48
2021/06/08 05:47:22;;;;;;;28.67;25.87;;;23.90;65.20;;;;;;5023826;28;20649;-51
2021/06/08 05:49:48;;;;;;;27.80;25.10;;;23.90;65.10;;;;;;5013076;28;20199;-52
2021/06/08 05:52:14;;;;;;;30.93;27.77;;;23.90;65.20;;;;;;5020752;28;20440;-49
2021/06/08 05:54:40;;;;;;;29.60;26.47;;;23.90;65.30;;;;;;5018540;28;20654;-51
2021/06/08 05:57:10;;;;;;;30.47;27.33;;;23.90;65.40;;;;;;5021343;28;20197;-52
2021/06/08 05:59:38;;;;;;;28.80;25.90;;;23.80;65.50;;;;;;5017864;28;20521;-51
2021/06/08 06:02:04;;;;;;;29.63;26.53;;;23.80;65.70;;;;;;5021091;28;20578;-48
2021/06/08 06:04:30;;;;;;;27.63;25.03;;;23.80;65.70;;;;;;5024041;28;20530;-51
2021/06/08 06:06:56;;;;;;;28.70;25.90;;;23.70;65.80;;;;;;5019303;28;20515;-47
2021/06/08 06:09:22;;;;;;;29.00;25.03;;;23.70;66.10;;;;;;5021109;28;20456;-48
2021/06/08 06:11:51;;;;;;;28.67;25.77;;;23.60;66.10;;;;;;5020765;28;20193;-52
2021/06/08 06:14:27;;;;;;;31.07;26.30;;;23.70;66.20;;;;;;5010734;28;20536;-51
2021/06/08 06:16:57;;;;;;;27.30;24.70;;;23.70;66.30;;;;;;5018339;28;20443;-47
2021/06/08 06:19:26;;;;;;;27.87;25.07;;;23.60;66.40;;;;;;5024466;28;20804;-52
2021/06/08 06:21:53;;;;;;;29.13;26.20;;;23.60;66.40;;;;;;5018750;28;20448;-48
2021/06/08 06:24:19;;;;;;;30.23;27.27;;;23.60;66.50;;;;;;5014755;28;20454;-48
2021/06/08 06:26:45;;;;;;;29.47;26.50;;;23.60;66.50;;;;;;5013823;28;20519;-50
2021/06/08 06:29:13;;;;;;;28.97;26.00;;;23.60;66.50;;;;;;5020986;28;20445;-52
2021/06/08 06:31:43;;;;;;;27.20;24.50;;;23.60;66.40;;;;;;5016547;28;20447;-52
2021/06/08 06:34:11;;;;;;;27.83;24.93;;;23.60;66.50;;;;;;5030527;28;20881;-51
2021/06/08 06:36:38;;;;;;;28.73;25.93;;;23.60;66.50;;;;;;5013849;28;20822;-52
2021/06/08 06:39:09;;;;;;;28.23;25.33;;;23.60;66.60;;;;;;5029599;28;20759;-50
2021/06/08 06:41:40;;;;;;;29.40;26.50;;;23.60;66.60;;;;;;5030308;28;20490;-52
2021/06/08 06:44:07;;;;;;;27.63;24.80;;;23.60;66.80;;;;;;5012266;28;20966;-50
2021/06/08 06:46:33;;;;;;;27.47;24.47;;;23.60;66.70;;;;;;5016258;28;20491;-50
2021/06/08 06:48:59;;;;;;;28.37;25.47;;;23.70;66.90;;;;;;5020359;28;20915;-51
2021/06/08 06:51:25;;;;;;;27.33;24.73;;;23.70;66.70;;;;;;5028446;28;20240;-48
2021/06/08 06:53:54;;;;;;;27.80;24.80;;;23.70;66.70;;;;;;5029733;28;20448;-52
2021/06/08 06:56:22;;;;;;;27.60;25.00;;;23.70;66.60;;;;;;5036818;28;20447;-51
2021/06/08 06:58:48;;;;;;;27.57;24.90;;;23.70;66.60;;;;;;5031439;28;20451;-49
2021/06/08 07:01:14;;;;;;;25.77;23.20;;;23.70;66.40;;;;;;5034077;28;20419;-52
2021/06/08 07:03:40;;;;;;;27.70;25.20;;;23.70;66.50;;;;;;5031328;28;20495;-52
2021/06/08 07:06:09;;;;;;;27.07;24.63;;;23.70;66.30;;;;;;5033264;28;20443;-49
2021/06/08 07:08:36;;;;;;;25.90;23.40;;;23.80;66.50;;;;;;5026583;28;20443;-47
2021/06/08 07:11:02;;;;;;;26.40;23.90;;;23.80;66.80;;;;;;5034526;28;20946;-47
2021/06/08 07:13:27;;;;;;;27.10;24.23;;;23.80;66.60;;;;;;5030697;28;20440;-47
2021/06/08 07:15:54;;;;;;;25.17;22.70;;;23.80;66.40;;;;;;5030983;28;20197;-50
2021/06/08 07:18:20;;;;;;;26.00;23.43;;;23.80;66.30;;;;;;5031236;28;20233;-48
2021/06/08 07:20:46;;;;;;;27.43;24.73;;;23.90;66.40;;;;;;5021577;28;20529;-48
2021/06/08 07:23:17;;;;;;;28.10;25.40;;;23.80;66.30;;;;;;5031113;28;20953;-50
2021/06/08 07:25:43;;;;;;;26.40;23.83;;;23.80;66.40;;;;;;5030066;28;20460;-49
2021/06/08 07:28:10;;;;;;;25.27;22.73;;;23.80;66.30;;;;;;5030443;28;20435;-47
2021/06/08 07:30:38;;;;;;;27.13;24.37;;;23.80;66.10;;;;;;5024303;28;20474;-51
2021/06/08 07:33:10;;;;;;;26.47;23.73;;;23.80;66.00;;;;;;5022459;28;20517;-52
2021/06/08 07:36:18;;;;;;;25.90;23.50;;;23.80;66.10;;;;;;5024615;28;20456;-48
2021/06/08 07:38:46;;;;;;;27.93;24.47;;;23.80;66.00;;;;;;4977850;28;20449;-48
2021/06/08 07:41:15;;;;;;;27.17;24.57;;;23.80;66.20;;;;;;4990957;28;20454;-48
2021/06/08 07:43:51;;;;;;;26.47;24.07;;;23.80;66.20;;;;;;5003453;28;21312;-47
2021/06/08 07:46:19;;;;;;;27.23;24.40;;;23.80;66.70;;;;;;5025595;28;20791;-50
2021/06/08 07:48:50;;;;;;;27.37;24.60;;;23.80;66.30;;;;;;5022636;28;20459;-47
2021/06/08 07:51:16;;;;;;;26.20;23.63;;;23.80;66.50;;;;;;5023966;28;20539;-51
2021/06/08 07:53:43;;;;;;;25.63;22.93;;;23.80;66.50;;;;;;5029397;28;20440;-47
2021/06/08 07:56:10;;;;;;;27.07;24.47;;;23.80;66.50;;;;;;5021051;28;20433;-51
2021/06/08 07:58:38;;;;;;;27.47;24.70;;;23.90;66.50;;;;;;5024816;28;20437;-47
2021/06/08 08:01:04;;;;;;;26.30;23.70;;;23.90;66.40;;;;;;5021528;28;20440;-49
2021/06/08 08:03:32;;;;;;;27.63;25.07;;;23.90;66.40;;;;;;5021291;28;20483;-49
2021/06/08 08:06:01;;;;;;;30.77;25.87;;;23.90;66.30;;;;;;5016797;28;20527;-48
2021/06/08 08:08:27;;;;;;;26.50;24.00;;;23.90;66.10;;;;;;5019322;28;21008;-49
2021/06/08 08:10:53;;;;;;;28.07;25.27;;;23.90;66.50;;;;;;5021909;28;20444;-48
2021/06/08 08:13:22;;;;;;;26.60;24.10;;;24.00;66.50;;;;;;5026803;28;20472;-48
2021/06/08 08:15:50;;;;;;;26.87;24.20;;;24.00;66.90;;;;;;5019506;28;20618;-49
2021/06/08 08:18:16;;;;;;;28.47;25.67;;;24.00;66.70;;;;;;5018350;28;20487;-51
2021/06/08 08:20:49;;;;;;;26.87;24.07;;;24.10;66.40;;;;;;5013479;28;20452;-48
2021/06/08 08:23:16;;;;;;;26.77;24.23;;;24.10;65.80;;;;;;5016788;28;20619;-48
2021/06/08 08:25:42;;;;;;;27.67;25.00;;;24.10;65.60;;;;;;5017674;28;20448;-50
2021/06/08 08:28:09;;;;;;;27.00;24.23;;;24.20;65.20;;;;;;5021676;28;20777;-47
2021/06/08 08:30:35;;;;;;;28.60;25.90;;;24.20;65.00;;;;;;5021242;28;20440;-48
2021/06/08 08:33:01;;;;;;;27.87;24.97;;;24.30;65.00;;;;;;5025424;28;20495;-49
2021/06/08 08:35:27;;;;;;;25.50;23.30;;;24.30;64.80;;;;;;5016602;28;20462;-48
2021/06/08 08:37:53;;;;;;;21.17;19.17;;;24.30;64.50;;;;;;5026020;28;21065;-47
2021/06/08 08:40:22;;;;;;;21.40;19.20;;;24.40;63.80;;;;;;5017880;28;22138;-47
2021/06/08 08:42:48;;;;;;;23.53;21.33;;;24.50;63.00;;;;;;5021179;28;20535;-47
2021/06/08 08:45:15;;;;;;;20.20;18.20;;;24.60;62.80;;;;;;5016538;28;20866;-48
2021/06/08 08:47:42;;;;;;;22.17;20.00;;;24.70;62.40;;;;;;5024128;28;21047;-50
2021/06/08 08:50:09;;;;;;;23.57;21.30;;;24.80;61.90;;;;;;5016119;28;20447;-50
2021/06/08 08:52:35;;;;;;;23.30;21.10;;;25.00;61.60;;;;;;5019504;28;20452;-48
2021/06/08 08:55:03;;;;;;;19.80;18.00;;;25.00;60.90;;;;;;5015318;28;20539;-47
2021/06/08 08:57:30;;;;;;;18.70;16.90;;;24.80;60.50;;;;;;5021062;28;20204;-47
2021/06/08 08:59:59;;;;;;;17.80;16.30;;;25.00;60.40;;;;;;5015464;28;20964;-48
2021/06/08 09:02:26;;;;;;;23.53;21.30;;;25.10;60.30;;;;;;5027888;28;20484;-47
2021/06/08 09:04:53;;;;;;;27.70;24.97;;;25.20;60.20;;;;;;5014313;28;20479;-47
2021/06/08 09:07:19;;;;;;;28.70;25.73;;;25.30;59.60;;;;;;5017353;28;20452;-50
2021/06/08 09:09:46;;;;;;;29.60;26.70;;;25.50;59.40;;;;;;5018156;28;20532;-48
2021/06/08 09:12:12;;;;;;;28.50;25.60;;;25.50;59.30;;;;;;5015687;28;21291;-49
2021/06/08 09:14:40;;;;;;;30.23;27.27;;;25.50;59.40;;;;;;5025134;28;20451;-47
2021/06/08 09:17:07;;;;;;;28.07;25.37;;;25.60;59.50;;;;;;5016020;28;20724;-49
2021/06/08 09:19:34;;;;;;;29.63;26.90;;;25.60;59.40;;;;;;5023819;28;20537;-51
2021/06/08 09:22:00;;;;;;;30.07;27.17;;;25.70;59.10;;;;;;5005348;28;20588;-48
2021/06/08 09:24:29;;;;;;;27.60;25.00;;;25.70;58.80;;;;;;5025648;28;20481;-49
2021/06/08 09:27:01;;;;;;;28.70;25.80;;;25.90;59.60;;;;;;5025844;28;20447;-50
2021/06/08 09:29:29;;;;;;;28.83;26.13;;;25.80;59.90;;;;;;5019742;28;20453;-47
2021/06/08 09:32:14;;;;;;;31.47;28.40;;;25.90;59.40;;;;;;5013973;28;20441;-48
2021/06/08 09:34:54;;;;;;;29.10;26.27;;;26.10;59.10;;;;;;5025075;28;20870;-47
2021/06/08 09:37:41;;;;;;;29.53;26.63;;;26.20;58.60;;;;;;5021875;28;20453;-50
2021/06/08 09:40:22;;;;;;;28.37;25.47;;;26.30;58.20;;;;;;5023606;28;20444;-50
2021/06/08 09:43:04;;;;;;;28.70;25.87;;;26.20;57.80;;;;;;5015601;28;20488;-51
2021/06/08 09:45:49;;;;;;;29.40;26.60;;;26.20;57.80;;;;;;5016627;28;20440;-52
2021/06/08 09:48:16;;;;;;;28.70;26.00;;;26.20;57.60;;;;;;5016216;28;20437;-51
2021/06/08 09:50:46;;;;;;;30.07;27.27;;;26.10;57.40;;;;;;5022460;28;20440;-51
2021/06/08 09:53:26;;;;;;;30.13;27.23;;;26.20;57.80;;;;;;5032933;28;20500;-50
2021/06/08 09:56:02;;;;;;;32.90;29.40;;;26.00;57.70;;;;;;5012858;28;20455;-51
2021/06/08 09:58:29;;;;;;;30.53;27.53;;;25.90;58.10;;;;;;5014188;28;20488;-51
2021/06/08 10:01:23;;;;;;;28.20;25.40;;;26.10;58.30;;;;;;5016473;28;20532;-51
2021/06/08 10:03:54;;;;;;;29.53;26.43;;;26.20;58.40;;;;;;5013440;28;20495;-49
2021/06/08 10:06:44;;;;;;;29.67;26.87;;;26.30;58.00;;;;;;5017951;28;20440;-50
2021/06/08 10:09:11;;;;;;;29.43;26.37;;;26.30;57.90;;;;;;5021053;28;20501;-52
2021/06/08 10:11:39;;;;;;;29.40;26.77;;;26.30;57.40;;;;;;5023312;28;20440;-49
2021/06/08 10:14:07;;;;;;;30.97;28.17;;;26.50;57.50;;;;;;5022909;28;20515;-51
2021/06/08 10:16:33;;;;;;;29.43;26.53;;;26.50;57.50;;;;;;5021382;28;20456;-53
2021/06/08 10:19:02;;;;;;;28.47;25.90;;;26.50;57.00;;;;;;5019328;28;20484;-51
2021/06/08 10:21:36;;;;;;;28.97;26.43;;;26.50;57.10;;;;;;5023918;28;20193;-49
2021/06/08 10:24:07;;;;;;;28.53;25.83;;;26.70;57.30;;;;;;5045635;28;20521;-50
2021/06/08 10:26:35;;;;;;;27.10;24.60;;;26.80;56.70;;;;;;5020927;28;20822;-49
2021/06/08 10:29:06;;;;;;;28.30;25.60;;;26.90;57.00;;;;;;5025956;28;20510;-51
2021/06/08 10:31:33;;;;;;;28.10;25.60;;;26.90;56.40;;;;;;5030776;28;20983;-53
2021/06/08 10:33:59;;;;;;;27.80;25.50;;;27.00;56.40;;;;;;5022068;28;20441;-51
2021/06/08 10:36:26;;;;;;;26.93;24.50;;;27.10;55.60;;;;;;5021164;28;20440;-51
2021/06/08 10:38:51;;;;;;;26.60;24.20;;;27.30;55.60;;;;;;5019138;28;20935;-52
2021/06/08 10:41:17;;;;;;;28.50;25.80;;;27.40;55.60;;;;;;5018359;28;20472;-52
2021/06/08 10:43:43;;;;;;;26.30;24.07;;;27.50;55.90;;;;;;5021523;28;20225;-53
2021/06/08 10:46:24;;;;;;;22.93;20.93;;;27.50;55.90;;;;;;5019422;28;20284;-48
2021/06/08 10:48:51;;;;;;;24.40;21.97;;;27.50;54.90;;;;;;5023969;28;20197;-51
2021/06/08 10:51:20;;;;;;;26.40;24.20;;;27.40;55.20;;;;;;5031142;28;20444;-52
2021/06/08 10:53:49;;;;;;;27.00;24.63;;;27.60;54.40;;;;;;5020213;28;20447;-52
2021/06/08 10:56:20;;;;;;;28.77;25.97;;;27.70;54.20;;;;;;5029213;28;20447;-49
2021/06/08 10:58:50;;;;;;;21.53;19.60;;;27.70;54.30;;;;;;5018704;28;20508;-52
2021/06/08 11:01:34;;;;;;;22.70;20.80;;;27.60;54.40;;;;;;5028082;28;20509;-51
2021/06/08 11:04:03;;;;;;;21.00;19.20;;;27.60;54.50;;;;;;5039342;28;21018;-51
2021/06/08 11:06:38;;;;;;;23.27;21.07;;;27.70;54.20;;;;;;5022942;28;21137;-52
2021/06/08 11:09:12;;;;;;;26.97;24.57;;;27.70;54.00;;;;;;5025607;28;20482;-52
2021/06/08 11:11:46;;;;;;;22.93;20.93;;;27.90;54.30;;;;;;5035520;28;20954;-53
2021/06/08 11:17:00;;;;;;;24.63;22.27;;;28.00;54.10;;;;;;5021668;28;20488;-52
2021/06/08 11:19:40;;;;;;;21.23;19.23;;;27.90;54.00;;;;;;5012220;28;20448;-52
2021/06/08 11:22:06;;;;;;;21.03;19.27;;;28.00;53.80;;;;;;5027750;28;20622;-52
2021/06/08 11:24:47;;;;;;;21.57;19.57;;;27.90;53.70;;;;;;5017916;28;20441;-52
2021/06/08 11:27:13;;;;;;;21.97;20.00;;;28.10;53.50;;;;;;5023979;28;20436;-52
2021/06/08 11:29:55;;;;;;;19.43;17.73;;;28.00;53.50;;;;;;5030257;28;20448;-50
2021/06/08 11:32:31;;;;;;;22.07;19.93;;;28.10;53.20;;;;;;5029412;28;20497;-53
2021/06/08 11:35:30;;;;;;;20.73;19.03;;;28.10;53.40;;;;;;5030884;28;20457;-53
2021/06/08 11:38:06;;;;;;;21.20;19.40;;;28.20;53.00;;;;;;5019915;28;20544;-52
2021/06/08 11:40:35;;;;;;;20.13;18.33;;;28.30;52.80;;;;;;5030499;28;20447;-52
2021/06/08 11:43:23;;;;;;;20.10;18.40;;;28.30;52.60;;;;;;5022256;28;20496;-52
2021/06/08 11:46:17;;;;;;;20.57;18.77;;;28.50;52.40;;;;;;5024084;28;20882;-52
2021/06/08 11:48:45;;;;;;;23.50;21.37;;;28.60;52.00;;;;;;5027807;28;21252;-51
2021/06/08 11:51:21;;;;;;;20.20;18.33;;;28.60;52.20;;;;;;5019061;28;20532;-50
2021/06/08 11:54:04;;;;;;;24.23;22.10;;;28.60;52.30;;;;;;5021845;28;20443;-51
2021/06/08 11:56:45;;;;;;;27.77;24.93;;;28.70;52.70;;;;;;5017817;28;22084;-52
2021/06/08 11:59:11;;;;;;;23.53;21.27;;;28.80;52.70;;;;;;5012573;28;20508;-51
2021/06/08 12:01:47;;;;;;;27.07;24.60;;;28.80;53.00;;;;;;5015777;28;20437;-53
2021/06/08 12:04:14;;;;;;;24.57;22.37;;;28.90;52.00;;;;;;5021615;28;20496;-52
2021/06/08 12:06:56;;;;;;;25.53;23.23;;;28.90;52.40;;;;;;5024070;28;20451;-53
2021/06/08 12:09:25;;;;;;;25.70;23.40;;;29.10;52.80;;;;;;5028478;28;20448;-54
2021/06/08 12:11:52;;;;;;;24.00;22.00;;;29.20;52.00;;;;;;5021352;28;20441;-52
2021/06/08 12:14:20;;;;;;;24.50;22.40;;;29.30;52.30;;;;;;5015284;28;20444;-54
2021/06/08 12:16:50;;;;;;;23.83;21.80;;;29.30;52.20;;;;;;5014940;28;20444;-54
2021/06/08 12:19:16;;;;;;;22.73;20.63;;;29.40;52.00;;;;;;5010957;28;20452;-53
2021/06/08 12:21:44;;;;;;;23.60;21.43;;;29.50;51.70;;;;;;5016342;28;20472;-51
2021/06/08 12:24:16;;;;;;;24.47;22.40;;;29.60;51.60;;;;;;5019571;28;20491;-52
2021/06/08 12:26:54;;;;;;;23.70;21.60;;;29.80;51.30;;;;;;5030160;28;20448;-50
2021/06/08 12:29:20;;;;;;;23.63;21.73;;;29.80;51.00;;;;;;5017683;28;20444;-54
2021/06/08 12:32:05;;;;;;;24.20;21.93;;;29.70;50.90;;;;;;5023032;28;20480;-54
2021/06/08 12:34:35;;;;;;;19.03;17.53;;;29.80;50.60;;;;;;5026414;28;20201;-52
2021/06/08 12:37:01;;;;;;;23.17;21.37;;;29.80;50.60;;;;;;5030958;28;20461;-53
2021/06/08 12:39:29;;;;;;;21.40;19.60;;;29.80;49.90;;;;;;5028896;28;20436;-54
2021/06/08 12:42:12;;;;;;;18.90;17.50;;;29.60;50.20;;;;;;5028095;28;20791;-53